Time;durP1;ratioP1;P1;durP2;ratioP2;P2;SDS_P1;SDS_P2;PMS_P1;PMS_P2;Temp;Humidity;BMP_temperature;BMP_pressure;BME280_temperature;BME280_humidity;BME280_pressure;Samples;Min_cycle;Max_cycle;Signal;HPM_P1;HPM_P2
2022/11/12 00:00:06;;;;;;;0.20;0.10;;;;;;;;;;5038419;28;20055;-81
2022/11/12 00:02:32;;;;;;;0.20;0.10;;;;;;;;;;5037905;28;20044;-82
2022/11/12 00:04:58;;;;;;;0.20;0.10;;;;;;;;;;5038909;28;20071;-82
2022/11/12 00:07:24;;;;;;;0.20;0.10;;;;;;;;;;5055996;28;20557;-82
2022/11/12 00:09:50;;;;;;;0.22;0.20;;;;;;;;;;5038846;28;20039;-82
2022/11/12 00:12:16;;;;;;;0.20;0.10;;;;;;;;;;5069331;28;20037;-82
2022/11/12 00:14:42;;;;;;;0.20;0.20;;;;;;;;;;5039271;28;20094;-81
2022/11/12 00:17:08;;;;;;;0.20;0.10;;;;;;;;;;5054267;28;20143;-81
2022/11/12 00:19:34;;;;;;;0.20;0.15;;;;;;;;;;5036097;28;20180;-82
2022/11/12 00:22:00;;;;;;;0.20;0.10;;;;;;;;;;5050817;28;20048;-82
2022/11/12 00:24:26;;;;;;;0.20;0.10;;;;;;;;;;5021856;28;20063;-82
2022/11/12 00:26:52;;;;;;;0.20;0.10;;;;;;;;;;5057607;28;20033;-82
2022/11/12 00:29:18;;;;;;;0.20;0.15;;;;;;;;;;5054218;28;20067;-82
2022/11/12 00:31:44;;;;;;;0.20;0.10;;;;;;;;;;5040009;28;20135;-82
2022/11/12 00:34:10;;;;;;;0.20;0.10;;;;;;;;;;5033998;28;21730;-81
2022/11/12 00:36:36;;;;;;;0.20;0.10;;;;;;;;;;5056490;28;20514;-81
2022/11/12 00:39:03;;;;;;;0.20;0.13;;;;;;;;;;5032308;28;20041;-81
2022/11/12 00:41:29;;;;;;;0.20;0.10;;;;;;;;;;5051535;28;20094;-82
2022/11/12 00:43:55;;;;;;;0.20;0.10;;;;;;;;;;5040022;28;20044;-81
2022/11/12 00:46:21;;;;;;;0.35;0.30;;;;;;;;;;5042650;28;20128;-83
2022/11/12 00:48:47;;;;;;;0.20;0.10;;;;;;;;;;5056303;28;20101;-82
2022/11/12 00:51:13;;;;;;;0.20;0.10;;;;;;;;;;5043188;28;20045;-82
2022/11/12 00:53:39;;;;;;;0.20;0.20;;;;;;;;;;5039603;28;20134;-82
2022/11/12 00:56:06;;;;;;;0.20;0.10;;;;;;;;;;5045591;28;20041;-82
2022/11/12 00:58:33;;;;;;;0.20;0.10;;;;;;;;;;5055443;28;20040;-82
2022/11/12 01:01:04;;;;;;;0.20;0.10;;;;;;;;;;5055915;28;20036;-81
2022/11/12 01:03:30;;;;;;;0.20;0.10;;;;;;;;;;5044144;28;21204;-81
2022/11/12 01:06:01;;;;;;;0.20;0.10;;;;;;;;;;5054605;28;20063;-81
2022/11/12 01:08:28;;;;;;;0.20;0.10;;;;;;;;;;5056830;28;20043;-81
2022/11/12 01:10:54;;;;;;;0.20;0.10;;;;;;;;;;5056605;28;20040;-81
2022/11/12 01:13:20;;;;;;;0.20;0.10;;;;;;;;;;5043222;28;20048;-84
2022/11/12 01:15:46;;;;;;;0.20;0.20;;;;;;;;;;5027790;28;20043;-81
2022/11/12 01:18:12;;;;;;;0.20;0.10;;;;;;;;;;5025158;28;20718;-82
2022/11/12 01:20:38;;;;;;;0.20;0.10;;;;;;;;;;5060451;28;20494;-82
2022/11/12 01:23:05;;;;;;;0.20;0.10;;;;;;;;;;5057800;28;20036;-81
2022/11/12 01:25:31;;;;;;;0.38;0.38;;;;;;;;;;5055622;28;20086;-81
2022/11/12 01:27:57;;;;;;;0.20;0.10;;;;;;;;;;5028960;28;20041;-82
2022/11/12 01:30:24;;;;;;;2.28;0.65;;;;;;;;;;5055590;28;20063;-82
2022/11/12 01:32:50;;;;;;;0.20;0.10;;;;;;;;;;5028167;28;20067;-82
2022/11/12 01:35:16;;;;;;;0.20;0.10;;;;;;;;;;5041977;28;20658;-84
2022/11/12 01:37:42;;;;;;;0.20;0.10;;;;;;;;;;5036439;28;20082;-84
2022/11/12 01:40:09;;;;;;;0.20;0.10;;;;;;;;;;5039245;28;20658;-83
2022/11/12 01:42:35;;;;;;;0.20;0.10;;;;;;;;;;5036580;28;20048;-83
2022/11/12 01:45:01;;;;;;;0.20;0.10;;;;;;;;;;5021654;28;20044;-84
2022/11/12 01:47:30;;;;;;;0.20;0.05;;;;;;;;;;5036879;28;20121;-83
2022/11/12 01:49:58;;;;;;;0.20;0.08;;;;;;;;;;5056456;28;20044;-83
2022/11/12 01:52:30;;;;;;;0.32;0.30;;;;;;;;;;5036896;28;20071;-84
2022/11/12 01:54:58;;;;;;;0.20;0.10;;;;;;;;;;5038492;28;20040;-83
2022/11/12 01:57:30;;;;;;;0.28;0.20;;;;;;;;;;5055378;28;21622;-83
2022/11/12 02:00:00;;;;;;;0.20;0.10;;;;;;;;;;5059054;28;20040;-83
2022/11/12 02:02:27;;;;;;;0.20;0.10;;;;;;;;;;5043372;28;20109;-84
2022/11/12 02:04:53;;;;;;;0.20;0.10;;;;;;;;;;5054633;28;20045;-84
2022/11/12 02:07:21;;;;;;;0.20;0.10;;;;;;;;;;5056976;28;20037;-83
2022/11/12 02:09:47;;;;;;;0.50;0.32;;;;;;;;;;5057517;28;20153;-84
2022/11/12 02:13:56;;;;;;;0.20;0.10;;;;;;;;;;5061520;28;20094;-84
2022/11/12 02:14:59;;;;;;;0.20;0.10;;;;;;;;;;5058362;28;20051;-84
2022/11/12 02:17:25;;;;;;;0.20;0.10;;;;;;;;;;5057523;28;20052;-84
2022/11/12 02:19:52;;;;;;;0.20;0.10;;;;;;;;;;5060136;28;20048;-84
2022/11/12 02:22:18;;;;;;;0.20;0.10;;;;;;;;;;5042964;28;20330;-84
2022/11/12 02:24:44;;;;;;;0.20;0.10;;;;;;;;;;5045124;28;20406;-83
2022/11/12 02:27:10;;;;;;;0.20;0.10;;;;;;;;;;5040712;28;20860;-85
2022/11/12 02:29:45;;;;;;;0.20;0.10;;;;;;;;;;5058349;28;20044;-84
2022/11/12 02:32:11;;;;;;;0.20;0.10;;;;;;;;;;5056137;28;20036;-84
2022/11/12 02:34:38;;;;;;;0.20;0.10;;;;;;;;;;5054661;28;20044;-84
2022/11/12 02:37:05;;;;;;;0.20;0.10;;;;;;;;;;5040753;28;20044;-86
2022/11/12 02:39:31;;;;;;;0.20;0.10;;;;;;;;;;5040676;28;20173;-84
2022/11/12 02:41:57;;;;;;;0.20;0.10;;;;;;;;;;5042121;28;20052;-84
2022/11/12 02:44:23;;;;;;;0.20;0.10;;;;;;;;;;5025024;28;20140;-85
2022/11/12 02:46:49;;;;;;;0.20;0.10;;;;;;;;;;5054222;28;20099;-84
2022/11/12 02:49:15;;;;;;;0.20;0.20;;;;;;;;;;5025544;28;20083;-84
2022/11/12 02:51:41;;;;;;;0.20;0.10;;;;;;;;;;5041701;28;20228;-83
2022/11/12 02:54:07;;;;;;;0.20;0.10;;;;;;;;;;5055931;28;20044;-85
2022/11/12 02:56:34;;;;;;;0.20;0.10;;;;;;;;;;5023821;28;20202;-86
2022/11/12 02:59:00;;;;;;;0.20;0.10;;;;;;;;;;5054143;28;20748;-83
2022/11/12 03:01:26;;;;;;;0.20;0.10;;;;;;;;;;5038818;28;20036;-84
2022/11/12 03:03:52;;;;;;;0.20;0.10;;;;;;;;;;5054229;28;20093;-83
2022/11/12 03:06:18;;;;;;;0.20;0.10;;;;;;;;;;5025945;28;20059;-84
2022/11/12 03:08:44;;;;;;;0.20;0.10;;;;;;;;;;5037521;28;20041;-81
2022/11/12 03:11:12;;;;;;;0.20;0.10;;;;;;;;;;5057381;28;20075;-83
2022/11/12 03:13:38;;;;;;;0.20;0.10;;;;;;;;;;5058082;28;20511;-84
2022/11/12 03:16:05;;;;;;;0.20;0.10;;;;;;;;;;5039593;28;20077;-84
2022/11/12 03:18:31;;;;;;;0.20;0.10;;;;;;;;;;5053231;28;20033;-84
2022/11/12 03:20:57;;;;;;;0.20;0.10;;;;;;;;;;5054114;28;20045;-84
2022/11/12 03:23:23;;;;;;;0.20;0.10;;;;;;;;;;5056547;28;20075;-84
2022/11/12 03:25:49;;;;;;;0.20;0.10;;;;;;;;;;5056743;28;20033;-84
2022/11/12 03:28:16;;;;;;;0.20;0.10;;;;;;;;;;5055890;28;20059;-84
2022/11/12 03:30:42;;;;;;;0.40;0.40;;;;;;;;;;5042184;28;20040;-84
2022/11/12 03:33:09;;;;;;;0.20;0.10;;;;;;;;;;5041567;28;20072;-85
2022/11/12 03:35:36;;;;;;;0.20;0.20;;;;;;;;;;5041587;28;20055;-83
2022/11/12 03:38:02;;;;;;;0.20;0.10;;;;;;;;;;5055828;28;20055;-84
2022/11/12 03:40:29;;;;;;;0.20;0.10;;;;;;;;;;5092552;22;20039;-77
2022/11/12 03:42:55;;;;;;;0.20;0.10;;;;;;;;;;5077206;28;20523;-77
2022/11/12 03:45:24;;;;;;;0.88;0.50;;;;;;;;;;5074713;28;20130;-77
2022/11/12 03:47:54;;;;;;;0.20;0.10;;;;;;;;;;5089710;28;20047;-77
2022/11/12 03:50:21;;;;;;;0.20;0.10;;;;;;;;;;5075666;28;20114;-77
2022/11/12 03:52:49;;;;;;;0.20;0.10;;;;;;;;;;5079957;28;20449;-77
2022/11/12 03:55:16;;;;;;;0.20;0.10;;;;;;;;;;5060771;28;20036;-77
2022/11/12 03:57:42;;;;;;;0.20;0.10;;;;;;;;;;5071011;28;20047;-77
2022/11/12 04:00:09;;;;;;;0.20;0.10;;;;;;;;;;5075240;28;20047;-77
2022/11/12 04:02:35;;;;;;;0.20;0.10;;;;;;;;;;5077712;28;20538;-77
2022/11/12 04:10:33;;;;;;;0.20;0.10;;;;;;;;;;5084451;28;20035;-77
2022/11/12 04:15:44;;;;;;;0.20;0.10;;;;;;;;;;5077910;28;20040;-77
2022/11/12 04:23:39;;;;;;;0.50;0.20;;;;;;;;;;5075099;28;20128;-77
2022/11/12 04:26:24;;;;;;;0.20;0.10;;;;;;;;;;5075679;28;20045;-77
2022/11/12 04:31:34;;;;;;;0.20;0.10;;;;;;;;;;5080483;28;20051;-77
2022/11/12 04:34:27;;;;;;;0.20;0.10;;;;;;;;;;5067011;28;20048;-77
2022/11/12 04:36:46;;;;;;;0.20;0.10;;;;;;;;;;5066999;28;20048;-77
2022/11/12 04:39:13;;;;;;;0.20;0.10;;;;;;;;;;5082689;28;20130;-77
2022/11/12 04:47:08;;;;;;;0.20;0.10;;;;;;;;;;5078125;28;20078;-77
2022/11/12 04:49:34;;;;;;;0.20;0.10;;;;;;;;;;5080321;28;20032;-77
2022/11/12 04:52:06;;;;;;;0.20;0.17;;;;;;;;;;5059639;28;20082;-77
2022/11/12 04:54:32;;;;;;;0.20;0.10;;;;;;;;;;5076581;28;22261;-77
2022/11/12 04:56:59;;;;;;;0.20;0.10;;;;;;;;;;5063961;28;20522;-78
2022/11/12 04:59:25;;;;;;;0.20;0.10;;;;;;;;;;5062642;28;20051;-77
2022/11/12 05:01:51;;;;;;;0.20;0.10;;;;;;;;;;5084627;28;20043;-78
2022/11/12 05:04:18;;;;;;;0.20;0.10;;;;;;;;;;5066623;28;20043;-78
2022/11/12 05:06:53;;;;;;;0.20;0.10;;;;;;;;;;5064185;28;20052;-79
2022/11/12 05:09:20;;;;;;;0.30;0.28;;;;;;;;;;5078725;28;20082;-77
2022/11/12 05:11:47;;;;;;;0.20;0.10;;;;;;;;;;5067900;28;20032;-77
2022/11/12 05:14:13;;;;;;;0.20;0.10;;;;;;;;;;5062934;28;20093;-77
2022/11/12 05:16:39;;;;;;;0.20;0.10;;;;;;;;;;5041489;28;20060;-77
2022/11/12 05:19:05;;;;;;;0.30;0.30;;;;;;;;;;5081095;28;20683;-78
2022/11/12 05:24:15;;;;;;;0.20;0.10;;;;;;;;;;5069220;28;20075;-78
2022/11/12 05:26:41;;;;;;;0.20;0.10;;;;;;;;;;5062904;28;20097;-77
2022/11/12 05:29:07;;;;;;;0.20;0.10;;;;;;;;;;5063622;28;20056;-79
2022/11/12 05:31:33;;;;;;;0.20;0.10;;;;;;;;;;5083264;28;20498;-79
2022/11/12 05:34:00;;;;;;;0.20;0.08;;;;;;;;;;5064995;28;20137;-78
2022/11/12 05:36:26;;;;;;;0.20;0.10;;;;;;;;;;5086314;28;20079;-77
2022/11/12 05:38:52;;;;;;;0.20;0.10;;;;;;;;;;5063498;28;20071;-77
2022/11/12 05:41:18;;;;;;;0.20;0.10;;;;;;;;;;5082452;28;20036;-78
2022/11/12 05:43:44;;;;;;;0.20;0.03;;;;;;;;;;5065583;28;20086;-78
2022/11/12 05:46:10;;;;;;;0.20;0.10;;;;;;;;;;5047202;28;20067;-78
2022/11/12 05:48:36;;;;;;;0.20;0.10;;;;;;;;;;5085689;28;20039;-78
2022/11/12 05:51:02;;;;;;;0.20;0.20;;;;;;;;;;5064260;28;20498;-77
2022/11/12 05:53:28;;;;;;;0.20;0.10;;;;;;;;;;5085664;28;20039;-77
2022/11/12 05:55:54;;;;;;;0.20;0.10;;;;;;;;;;5069083;28;20040;-78
2022/11/12 05:58:20;;;;;;;0.20;0.10;;;;;;;;;;5078890;28;20163;-78
2022/11/12 06:00:47;;;;;;;0.20;0.10;;;;;;;;;;5071696;28;20040;-78
2022/11/12 06:03:13;;;;;;;0.20;0.10;;;;;;;;;;5053106;28;20469;-78
2022/11/12 06:05:39;;;;;;;0.30;0.25;;;;;;;;;;5084172;28;20930;-78
2022/11/12 06:08:05;;;;;;;0.20;0.10;;;;;;;;;;5063049;28;20082;-77
2022/11/12 06:10:32;;;;;;;0.20;0.10;;;;;;;;;;5072900;28;20505;-77
2022/11/12 06:12:58;;;;;;;0.20;0.10;;;;;;;;;;5078621;28;20126;-77
2022/11/12 06:15:25;;;;;;;0.35;0.35;;;;;;;;;;5056274;28;20936;-77
2022/11/12 06:17:55;;;;;;;0.20;0.10;;;;;;;;;;5080738;28;20474;-77
2022/11/12 06:20:21;;;;;;;0.20;0.10;;;;;;;;;;5077672;28;20136;-78
2022/11/12 06:22:47;;;;;;;0.20;0.10;;;;;;;;;;5075711;28;20510;-78
2022/11/12 06:25:13;;;;;;;0.20;0.10;;;;;;;;;;5042444;28;20202;-78
2022/11/12 06:27:40;;;;;;;0.20;0.10;;;;;;;;;;5042032;28;22027;-78
2022/11/12 06:30:06;;;;;;;0.20;0.10;;;;;;;;;;5060709;28;20131;-77
2022/11/12 06:32:33;;;;;;;0.20;0.10;;;;;;;;;;5057421;28;20090;-77
2022/11/12 06:34:59;;;;;;;0.20;0.10;;;;;;;;;;5076843;28;20055;-77
2022/11/12 06:37:25;;;;;;;0.20;0.10;;;;;;;;;;5060055;28;20048;-77
2022/11/12 06:39:51;;;;;;;0.20;0.10;;;;;;;;;;5043101;28;20028;-77
2022/11/12 06:42:17;;;;;;;0.20;0.10;;;;;;;;;;5076696;28;20118;-77
2022/11/12 06:44:43;;;;;;;0.20;0.10;;;;;;;;;;5060416;28;20061;-77
2022/11/12 06:47:10;;;;;;;0.20;0.10;;;;;;;;;;5062433;28;20044;-78
2022/11/12 06:49:36;;;;;;;0.20;0.10;;;;;;;;;;5046562;28;20043;-77
2022/11/12 06:52:02;;;;;;;1.92;0.80;;;;;;;;;;5058423;28;20040;-77
2022/11/12 06:54:28;;;;;;;0.20;0.10;;;;;;;;;;5070517;28;20081;-78
2022/11/12 06:56:54;;;;;;;0.20;0.10;;;;;;;;;;5073140;28;20036;-77
2022/11/12 06:59:20;;;;;;;0.20;0.10;;;;;;;;;;5076719;28;20395;-77
2022/11/12 07:01:46;;;;;;;0.20;0.10;;;;;;;;;;5075690;28;20558;-77
2022/11/12 07:04:12;;;;;;;0.20;0.10;;;;;;;;;;5064651;28;20043;-78
2022/11/12 07:06:38;;;;;;;0.20;0.10;;;;;;;;;;5079106;28;20502;-77
2022/11/12 07:09:05;;;;;;;0.20;0.10;;;;;;;;;;5075421;28;20043;-77
2022/11/12 07:11:31;;;;;;;0.20;0.10;;;;;;;;;;5057141;28;20036;-77
2022/11/12 07:13:57;;;;;;;0.20;0.10;;;;;;;;;;5062803;28;20044;-77
2022/11/12 07:16:23;;;;;;;0.20;0.10;;;;;;;;;;5066209;28;20038;-77
2022/11/12 07:18:49;;;;;;;0.20;0.10;;;;;;;;;;5078223;28;20119;-77
2022/11/12 07:21:16;;;;;;;0.35;0.30;;;;;;;;;;5062050;28;20040;-77
2022/11/12 07:23:43;;;;;;;0.55;0.55;;;;;;;;;;5082335;28;20450;-77
2022/11/12 07:26:13;;;;;;;0.20;0.10;;;;;;;;;;5077518;28;20124;-77
2022/11/12 07:28:39;;;;;;;0.35;0.30;;;;;;;;;;5055630;28;20039;-78
2022/11/12 07:31:07;;;;;;;0.20;0.10;;;;;;;;;;5053802;28;20153;-77
2022/11/12 07:33:33;;;;;;;0.20;0.10;;;;;;;;;;5070044;28;20039;-77
2022/11/12 07:36:01;;;;;;;0.20;0.10;;;;;;;;;;5044668;28;20068;-77
2022/11/12 07:38:28;;;;;;;0.28;0.17;;;;;;;;;;5060867;28;20047;-78
2022/11/12 07:41:01;;;;;;;0.20;0.10;;;;;;;;;;5072315;28;20047;-77
2022/11/12 07:43:28;;;;;;;0.20;0.10;;;;;;;;;;5074384;28;20052;-77
2022/11/12 07:45:57;;;;;;;0.20;0.10;;;;;;;;;;5053210;28;20040;-77
2022/11/12 07:48:23;;;;;;;0.20;0.10;;;;;;;;;;5051204;28;20036;-77
2022/11/12 07:50:49;;;;;;;0.20;0.10;;;;;;;;;;5066987;28;20112;-77
2022/11/12 07:53:17;;;;;;;0.20;0.10;;;;;;;;;;5059328;28;20096;-78
2022/11/12 07:55:52;;;;;;;0.20;0.10;;;;;;;;;;5075426;28;20434;-77
2022/11/12 07:58:18;;;;;;;0.20;0.10;;;;;;;;;;5067062;28;20047;-78
2022/11/12 08:00:44;;;;;;;0.20;0.20;;;;;;;;;;5069987;28;20033;-77
2022/11/12 08:03:10;;;;;;;0.20;0.10;;;;;;;;;;5073735;28;20044;-77
2022/11/12 08:05:36;;;;;;;0.20;0.10;;;;;;;;;;5056283;28;20048;-77
2022/11/12 08:08:02;;;;;;;0.20;0.10;;;;;;;;;;5048881;28;20724;-78
2022/11/12 08:10:28;;;;;;;0.20;0.10;;;;;;;;;;5075739;28;20039;-78
2022/11/12 08:12:55;;;;;;;0.20;0.10;;;;;;;;;;5071484;28;20060;-78
2022/11/12 08:15:21;;;;;;;0.20;0.10;;;;;;;;;;5080983;28;20046;-78
2022/11/12 08:17:47;;;;;;;0.20;0.10;;;;;;;;;;5068289;28;20123;-78
2022/11/12 08:20:13;;;;;;;0.20;0.10;;;;;;;;;;5086381;28;20043;-78
2022/11/12 08:22:40;;;;;;;0.20;0.10;;;;;;;;;;5081276;28;20054;-78
2022/11/12 08:25:06;;;;;;;0.20;0.10;;;;;;;;;;5061042;28;20055;-78
2022/11/12 08:27:32;;;;;;;0.20;0.10;;;;;;;;;;5080826;28;20097;-78
2022/11/12 08:29:58;;;;;;;0.20;0.10;;;;;;;;;;5058288;28;20048;-78
2022/11/12 08:32:24;;;;;;;0.20;0.10;;;;;;;;;;5055096;28;20112;-78
2022/11/12 08:34:50;;;;;;;0.20;0.10;;;;;;;;;;5082498;28;20048;-78
2022/11/12 08:37:16;;;;;;;0.30;0.30;;;;;;;;;;5060889;28;20040;-78
2022/11/12 08:39:42;;;;;;;0.20;0.10;;;;;;;;;;5059231;28;20309;-78
2022/11/12 08:42:09;;;;;;;0.20;0.10;;;;;;;;;;5061685;28;20702;-77
2022/11/12 08:44:35;;;;;;;0.20;0.10;;;;;;;;;;5061919;28;20068;-78
2022/11/12 08:47:01;;;;;;;0.20;0.10;;;;;;;;;;5078103;28;20040;-78
2022/11/12 08:49:28;;;;;;;0.20;0.10;;;;;;;;;;5076982;28;20048;-75
2022/11/12 08:51:54;;;;;;;0.20;0.10;;;;;;;;;;5073231;28;20040;-78
2022/11/12 08:54:20;;;;;;;0.20;0.10;;;;;;;;;;5079153;28;20085;-78
2022/11/12 08:56:46;;;;;;;0.20;0.10;;;;;;;;;;5065425;28;20040;-78
2022/11/12 08:59:12;;;;;;;0.20;0.10;;;;;;;;;;5064406;28;20123;-78
2022/11/12 09:01:38;;;;;;;0.20;0.10;;;;;;;;;;5064052;28;20036;-78
2022/11/12 09:04:04;;;;;;;0.20;0.10;;;;;;;;;;5082654;28;20040;-78
2022/11/12 09:06:30;;;;;;;0.20;0.10;;;;;;;;;;5068812;28;20063;-77
2022/11/12 09:08:56;;;;;;;0.20;0.10;;;;;;;;;;5074734;28;20059;-78
2022/11/12 09:11:22;;;;;;;0.20;0.10;;;;;;;;;;5071678;28;20046;-78
2022/11/12 09:13:49;;;;;;;0.20;0.10;;;;;;;;;;5052914;28;20050;-78
2022/11/12 09:16:16;;;;;;;0.20;0.10;;;;;;;;;;5073570;28;20036;-78
2022/11/12 09:18:42;;;;;;;0.20;0.10;;;;;;;;;;5066962;28;20348;-77
2022/11/12 09:21:11;;;;;;;0.20;0.10;;;;;;;;;;5081588;28;20124;-78
2022/11/12 09:23:37;;;;;;;0.20;0.20;;;;;;;;;;5076138;28;20072;-78
2022/11/12 09:26:03;;;;;;;0.20;0.10;;;;;;;;;;5069400;28;20044;-78
2022/11/12 09:28:29;;;;;;;0.20;0.10;;;;;;;;;;5078227;28;20029;-78
2022/11/12 09:30:56;;;;;;;0.20;0.10;;;;;;;;;;5082252;28;20078;-78
2022/11/12 09:33:26;;;;;;;0.20;0.10;;;;;;;;;;5071113;28;20035;-78
2022/11/12 09:35:52;;;;;;;0.20;0.10;;;;;;;;;;5082982;28;20399;-78
2022/11/12 09:38:19;;;;;;;0.20;0.10;;;;;;;;;;5059500;28;20044;-78
2022/11/12 09:41:08;;;;;;;0.20;0.10;;;;;;;;;;5088212;22;20410;-84
2022/11/12 09:43:38;;;;;;;0.20;0.10;;;;;;;;;;5064085;28;20075;-84
2022/11/12 09:46:08;;;;;;;0.20;0.10;;;;;;;;;;5074337;28;20188;-84
2022/11/12 09:48:37;;;;;;;0.20;0.10;;;;;;;;;;5074182;28;20028;-83
2022/11/12 09:51:13;;;;;;;0.20;0.10;;;;;;;;;;5063707;28;20031;-84
2022/11/12 09:53:44;;;;;;;0.20;0.10;;;;;;;;;;5074924;28;20048;-87
2022/11/12 09:56:11;;;;;;;0.20;0.10;;;;;;;;;;5062536;28;21068;-84
2022/11/12 09:58:38;;;;;;;0.20;0.10;;;;;;;;;;5055672;28;20032;-86
2022/11/12 10:01:13;;;;;;;0.20;0.10;;;;;;;;;;5069771;28;20043;-84
2022/11/12 10:03:45;;;;;;;0.20;0.10;;;;;;;;;;5074883;28;20035;-86
2022/11/12 10:06:27;;;;;;;0.20;0.10;;;;;;;;;;5064115;28;20032;-85
2022/11/12 10:09:14;;;;;;;0.20;0.10;;;;;;;;;;5074121;28;20562;-86
2022/11/12 10:14:49;;;;;;;0.20;0.10;;;;;;;;;;5075028;28;20621;-85
2022/11/12 10:17:42;;;;;;;0.20;0.10;;;;;;;;;;5058079;28;20040;-85
2022/11/12 10:20:34;;;;;;;0.20;0.10;;;;;;;;;;5070469;28;20047;-85
2022/11/12 10:23:20;;;;;;;0.20;0.10;;;;;;;;;;5044295;28;20047;-85
2022/11/12 10:25:48;;;;;;;0.20;0.10;;;;;;;;;;5056987;28;20123;-85
2022/11/12 10:28:26;;;;;;;0.20;0.10;;;;;;;;;;5059665;28;22522;-85
2022/11/12 10:30:55;;;;;;;0.20;0.10;;;;;;;;;;5057649;28;20579;-84
2022/11/12 10:33:21;;;;;;;0.20;0.10;;;;;;;;;;5055478;28;20572;-85
2022/11/12 10:35:47;;;;;;;0.20;0.10;;;;;;;;;;5042500;28;20561;-84
2022/11/12 10:38:16;;;;;;;0.20;0.10;;;;;;;;;;5073086;28;20036;-84
2022/11/12 10:40:43;;;;;;;0.20;0.10;;;;;;;;;;5072304;28;20040;-84
2022/11/12 10:43:15;;;;;;;0.20;0.10;;;;;;;;;;5058357;28;20032;-84
2022/11/12 10:45:41;;;;;;;0.20;0.10;;;;;;;;;;5072489;28;20397;-84
2022/11/12 10:48:21;;;;;;;0.20;0.10;;;;;;;;;;5055186;28;20063;-83
2022/11/12 10:50:47;;;;;;;0.20;0.10;;;;;;;;;;5055490;28;20674;-81
2022/11/12 10:53:13;;;;;;;0.20;0.10;;;;;;;;;;5074002;28;20056;-83
2022/11/12 10:55:58;;;;;;;0.20;0.00;;;;;;;;;;5058440;28;20477;-83
2022/11/12 10:58:24;;;;;;;0.20;0.10;;;;;;;;;;5078004;28;20036;-82
2022/11/12 11:01:01;;;;;;;0.20;0.10;;;;;;;;;;5055573;28;20509;-82
2022/11/12 11:03:35;;;;;;;0.30;0.30;;;;;;;;;;5077261;28;20036;-82
2022/11/12 11:06:05;;;;;;;0.20;0.10;;;;;;;;;;5057629;28;20563;-81
2022/11/12 11:08:32;;;;;;;0.20;0.10;;;;;;;;;;5075180;28;20064;-82
2022/11/12 11:11:13;;;;;;;0.20;0.10;;;;;;;;;;5056006;28;20057;-82
2022/11/12 11:13:39;;;;;;;0.20;0.10;;;;;;;;;;5063166;28;20036;-83
2022/11/12 11:16:07;;;;;;;0.20;0.10;;;;;;;;;;5076078;28;20228;-82
2022/11/12 11:18:34;;;;;;;0.20;0.10;;;;;;;;;;5057862;28;20036;-82
2022/11/12 11:21:00;;;;;;;0.20;0.10;;;;;;;;;;5058954;28;20566;-82
2022/11/12 11:23:30;;;;;;;0.20;0.10;;;;;;;;;;5056307;28;20043;-81
2022/11/12 11:25:58;;;;;;;0.20;0.10;;;;;;;;;;5060295;28;20391;-82
2022/11/12 11:28:27;;;;;;;0.20;0.10;;;;;;;;;;5059991;28;20043;-83
2022/11/12 11:30:58;;;;;;;0.20;0.10;;;;;;;;;;5055094;28;20465;-82
2022/11/12 11:33:38;;;;;;;0.20;0.10;;;;;;;;;;5057895;28;20067;-82
2022/11/12 11:36:23;;;;;;;0.20;0.10;;;;;;;;;;5057411;28;20197;-82
2022/11/12 11:38:52;;;;;;;0.20;0.10;;;;;;;;;;5067245;28;20270;-82
2022/11/12 11:41:54;;;;;;;0.20;0.10;;;;;;;;;;5059548;28;20048;-82
2022/11/12 11:44:23;;;;;;;0.20;0.10;;;;;;;;;;4998879;28;20093;-83
2022/11/12 11:46:55;;;;;;;0.20;0.10;;;;;;;;;;5038834;28;20143;-81
2022/11/12 11:49:21;;;;;;;;;;;;;;;;;;5054559;28;20036;-82
2022/11/12 11:51:52;;;;;;;0.20;0.10;;;;;;;;;;5059978;28;19916;-81
2022/11/12 11:54:21;;;;;;;0.20;0.05;;;;;;;;;;5072971;28;20043;-81
2022/11/12 11:56:49;;;;;;;0.20;0.10;;;;;;;;;;5063626;28;20035;-85
2022/11/12 11:59:20;;;;;;;0.20;0.10;;;;;;;;;;5087896;28;20067;-84
2022/11/12 12:02:07;;;;;;;0.20;0.10;;;;;;;;;;5048813;28;20127;-82
2022/11/12 12:04:42;;;;;;;0.20;0.10;;;;;;;;;;5054587;28;20044;-82
2022/11/12 12:07:08;;;;;;;0.20;0.10;;;;;;;;;;5065595;28;20046;-83
2022/11/12 12:09:34;;;;;;;0.20;0.10;;;;;;;;;;5070696;28;20032;-84
2022/11/12 12:12:04;;;;;;;0.20;0.10;;;;;;;;;;5070662;28;20036;-82
2022/11/12 12:14:49;;;;;;;0.20;0.10;;;;;;;;;;5054434;28;20047;-83
2022/11/12 12:17:23;;;;;;;0.20;0.00;;;;;;;;;;5066546;28;20101;-82
2022/11/12 12:19:49;;;;;;;0.20;0.10;;;;;;;;;;5071951;28;20071;-83
2022/11/12 12:22:20;;;;;;;0.20;0.10;;;;;;;;;;5053944;28;20071;-82
2022/11/12 12:24:51;;;;;;;0.20;0.10;;;;;;;;;;5058297;28;20039;-83
2022/11/12 12:27:22;;;;;;;0.20;0.10;;;;;;;;;;5062749;28;20439;-83
2022/11/12 12:29:50;;;;;;;0.20;0.10;;;;;;;;;;5052213;28;20210;-83
2022/11/12 12:32:34;;;;;;;0.20;0.10;;;;;;;;;;5055128;28;20426;-83
2022/11/12 12:35:10;;;;;;;0.63;0.55;;;;;;;;;;5068723;28;20052;-83
2022/11/12 12:37:46;;;;;;;0.20;0.10;;;;;;;;;;5059081;28;20402;-85
2022/11/12 12:40:17;;;;;;;0.20;0.10;;;;;;;;;;5058793;28;20047;-84
2022/11/12 12:42:47;;;;;;;0.20;0.10;;;;;;;;;;5061741;28;20046;-85
2022/11/12 12:45:26;;;;;;;0.20;0.10;;;;;;;;;;5062356;28;21351;-83
2022/11/12 12:47:52;;;;;;;0.20;0.10;;;;;;;;;;5077602;28;20499;-83
2022/11/12 12:50:19;;;;;;;0.20;0.10;;;;;;;;;;5077457;28;20462;-83
2022/11/12 12:52:59;;;;;;;0.20;0.10;;;;;;;;;;5060987;28;20032;-84
2022/11/12 12:55:42;;;;;;;0.20;0.10;;;;;;;;;;5076154;28;20131;-82
2022/11/12 12:58:37;;;;;;;0.20;0.10;;;;;;;;;;5074446;28;20508;-83
2022/11/12 13:01:07;;;;;;;0.20;0.15;;;;;;;;;;5055622;28;20036;-83
2022/11/12 13:03:45;;;;;;;0.20;0.10;;;;;;;;;;5059183;28;20899;-83
2022/11/12 13:06:23;;;;;;;0.20;0.10;;;;;;;;;;5061297;28;20135;-83
2022/11/12 13:08:55;;;;;;;0.20;0.10;;;;;;;;;;5059739;28;20490;-83
2022/11/12 13:14:36;;;;;;;0.20;0.10;;;;;;;;;;5069618;28;20047;-84
2022/11/12 13:17:12;;;;;;;0.20;0.10;;;;;;;;;;5074191;28;20145;-84
2022/11/12 13:19:58;;;;;;;0.20;0.10;;;;;;;;;;5069012;28;20490;-88
2022/11/12 13:22:24;;;;;;;0.20;0.10;;;;;;;;;;5050950;28;20531;-85
2022/11/12 13:25:09;;;;;;;0.20;0.10;;;;;;;;;;5072582;28;20047;-85
2022/11/12 13:27:44;;;;;;;0.20;0.10;;;;;;;;;;5073689;28;20344;-87
2022/11/12 13:30:16;;;;;;;0.20;0.10;;;;;;;;;;5071551;28;20036;-85
2022/11/12 13:32:51;;;;;;;0.20;0.10;;;;;;;;;;5054563;28;20040;-86
2022/11/12 13:35:31;;;;;;;0.20;0.10;;;;;;;;;;5057613;28;20045;-86
2022/11/12 13:38:14;;;;;;;0.20;0.10;;;;;;;;;;5060951;28;20043;-87
2022/11/12 13:40:43;;;;;;;0.30;0.20;;;;;;;;;;5070708;28;20464;-88
2022/11/12 13:43:17;;;;;;;0.20;0.20;;;;;;;;;;5061201;28;20705;-86
2022/11/12 13:45:48;;;;;;;0.20;0.10;;;;;;;;;;5066064;28;20055;-85
2022/11/12 13:48:21;;;;;;;0.20;0.10;;;;;;;;;;5075045;28;20704;-88
2022/11/12 13:50:50;;;;;;;0.20;0.10;;;;;;;;;;5056242;28;20033;-86
2022/11/12 13:53:18;;;;;;;0.20;0.10;;;;;;;;;;5061448;28;20054;-86
2022/11/12 13:55:48;;;;;;;0.20;0.10;;;;;;;;;;5078932;28;20036;-87
2022/11/12 13:58:31;;;;;;;0.20;0.10;;;;;;;;;;5044606;28;20048;-87
2022/11/12 14:01:01;;;;;;;0.20;0.10;;;;;;;;;;5056343;28;20041;-86
2022/11/12 14:03:32;;;;;;;0.20;0.10;;;;;;;;;;5072994;28;20050;-86
2022/11/12 14:06:01;;;;;;;0.20;0.10;;;;;;;;;;5070895;28;20127;-86
2022/11/12 14:08:32;;;;;;;0.20;0.10;;;;;;;;;;5053016;28;20046;-88
2022/11/12 14:11:17;;;;;;;0.20;0.10;;;;;;;;;;5055469;28;20188;-86
2022/11/12 14:13:47;;;;;;;0.20;0.10;;;;;;;;;;5055371;28;20596;-87
2022/11/12 14:16:22;;;;;;;0.20;0.10;;;;;;;;;;5062700;28;20043;-87
2022/11/12 14:19:01;;;;;;;0.20;0.10;;;;;;;;;;5061816;28;20040;-87
2022/11/12 14:21:27;;;;;;;0.20;0.10;;;;;;;;;;5058185;28;20557;-86
2022/11/12 14:23:53;;;;;;;0.20;0.10;;;;;;;;;;5044084;28;20066;-87
2022/11/12 14:26:40;;;;;;;0.20;0.20;;;;;;;;;;5055721;28;20036;-88
2022/11/12 14:29:08;;;;;;;0.20;0.10;;;;;;;;;;5072499;28;20047;-86
2022/11/12 14:31:34;;;;;;;0.20;0.10;;;;;;;;;;5054850;28;20115;-87
2022/11/12 14:34:19;;;;;;;0.20;0.10;;;;;;;;;;5072505;28;20043;-87
2022/11/12 14:36:45;;;;;;;0.20;0.10;;;;;;;;;;5054645;28;20490;-87
2022/11/12 14:39:12;;;;;;;0.20;0.10;;;;;;;;;;5057159;28;20043;-87
2022/11/12 14:41:41;;;;;;;0.20;0.10;;;;;;;;;;5053224;28;20040;-87
2022/11/12 14:44:14;;;;;;;0.20;0.10;;;;;;;;;;5072415;28;20450;-87
2022/11/12 14:46:45;;;;;;;0.20;0.10;;;;;;;;;;5074208;28;20063;-87
2022/11/12 14:49:16;;;;;;;0.20;0.10;;;;;;;;;;5075250;28;20035;-86
2022/11/12 14:52:02;;;;;;;0.20;0.10;;;;;;;;;;5062939;28;20187;-87
2022/11/12 14:54:31;;;;;;;0.20;0.10;;;;;;;;;;5077374;28;20048;-87
2022/11/12 14:56:58;;;;;;;0.20;0.10;;;;;;;;;;5066069;28;20057;-86
2022/11/12 14:59:24;;;;;;;0.20;0.10;;;;;;;;;;5059603;28;20089;-86
2022/11/12 15:02:12;;;;;;;0.20;0.10;;;;;;;;;;5044842;28;20086;-86
2022/11/12 15:04:41;;;;;;;0.20;0.10;;;;;;;;;;5054467;28;20044;-86
2022/11/12 15:07:27;;;;;;;0.55;0.55;;;;;;;;;;5058269;28;20044;-86
2022/11/12 15:09:53;;;;;;;0.20;0.13;;;;;;;;;;5060563;28;20040;-86
2022/11/12 15:12:21;;;;;;;0.20;0.10;;;;;;;;;;5064027;28;20074;-85
2022/11/12 15:14:47;;;;;;;0.20;0.10;;;;;;;;;;5058859;28;20508;-87
2022/11/12 15:17:32;;;;;;;0.20;0.10;;;;;;;;;;5043917;28;20047;-85
2022/11/12 15:20:05;;;;;;;0.20;0.10;;;;;;;;;;5080980;28;20048;-85
2022/11/12 15:22:32;;;;;;;0.20;0.10;;;;;;;;;;5072392;28;20126;-86
2022/11/12 15:25:09;;;;;;;0.20;0.10;;;;;;;;;;5074055;28;21904;-85